KHFF/HFF METAR and TAF weather

Enter ICAO airport designator
Station Type Date Time Source
KHFF METAR 2019/02/22 22:56 UTC NOAA

KHFF 222256Z AUTO 06006KT 10SM OVC007 07/06 A3033 RMK AO2 SHRAE07 SLPNO T00680061


Station Type Date Time Source
KHFF Decoded METAR 2019/02/22 22:56 UTC NOAA

Mackall U. S. Army Airfield, NC, United States (KHFF) 35-02N 079-30W
Feb 22, 2019 - 05:56 PM EST / 2019.02.22 2256 UTC
Wind: from the ENE (060 degrees) at 7 MPH (6 KT):0
Visibility: 10 mile(s):0
Sky conditions: overcast
Temperature: 44.2 F (6.8 C)
Dew Point: 43.0 F (6.1 C)
Relative Humidity: 95%
Pressure (altimeter): 30.33 in. Hg (1027 hPa)
ob: KHFF 222256Z AUTO 06006KT 10SM OVC007 07/06 A3033 RMK AO2 SHRAE07 SLPNO T00680061
cycle: 23

Station Type Date Time Source
KHFF TAF UTC NOAA

Error!


Example: see airport list